夏休み絶好調!!! アツがナツいぜっっ!!!!

LUXURY FLIGHT

03-6423-7371

羽田本店:東京都大田区羽田5-11-1
営業時間:10:00~20:00
定休日:毎週 月曜日
セントレア店:愛知県常滑市セントレア1-1
営業時間:10:00~20:00 年中無休

lv

夏休み絶好調!!! アツがナツいぜっっ!!!!

STAFF BLOG

2019/08/04 夏休み絶好調!!! アツがナツいぜっっ!!!!

まいどまいどマイドっっ

 

みなさん大丈夫ですかーーー!?

 

溶けてないですかーーーーーー!?

 

本日の羽田METAR…

RJTT 040130Z 18007KT 9999 FEW020 32/24 Q1012 NOSIG RMK 1CU020 A2991

 

 

やばいです。

 

アスファルトが溶けるほど…なーんてよく言いますが、

 

そんな事はどーーーでもよく、私は手元のガリガリ君と、溶けるか溶けないかの真剣勝負で戦ってます。

 

そんなアホな状況の中、チラと横目で見ると、コックピットではキッズが戦っております。

 

夏休み前半戦、大量のキッズ達が熱い想いを滑走路にぶつけてくれています!!!!

 

 

 

img_2563

ミスももちろんあるでしょう!! でも初めてだから当然!!!

キッチリなんて誰も最初から出来ません

 

がんばった熱いキモチが何よりも大事

 

スタッフとして、この時間を楽しみながら共有できる。こんなに幸せな事はないです。

キモチいいナイスランディングを決めてくれた後の笑顔は何にも変えられずたまりません

img_2564

中学3年生とは思えない、大人びたお嬢さんパイロット!!

将来に向かって悩みは尽きないと思うけど、お母さんと二人三脚で頑張って下さいね!!

 

 

img_2565

私がお気に入りのキッズキャプテン!!

誕生日のプレゼントで昨年も遊びに来てくれました!!

一回り大きくなった姿を見れて嬉しかったーーーー

また来年も待ってます

 

 

まだまだ夏が始まったばかり!!

 

弊社も引き続きフルスロットルで参ります!!!!

 

いつもブログを読んでくださり本当にありがとうございます。

 

 

「感謝」

TOP